KR-0329 weather

Ocean Tower Heliport
Busan, Busan Gwang'yeogsi, South Korea

Public forecast

Using degrees Celsius for public forecast. Weather courtesy of forecast.io.

METAR (pilot weather report)

Closest report is Gimhae International Airport, 10.7 nm (19.7 km) W. Retrieved 2019/08/22 02:00 UTC (2 hours ago):

RKPK 220200Z 19009KT 4000 -RA BR FEW005 BKN015 OVC030 27/25 Q1005

TAF (pilot weather forecast)

Forecast is more than 12 hours old.

Closest forecast is Gimhae International Airport, 10.7 nm (19.7 km) W. Retrieved 2019/08/21 00:00 UTC (1 day ago):

TAF RKPK 212300Z 2200/2306 20008KT 3200 -RA BR BKN010 OVC020 TX28/2206Z TN24/2220Z BECMG 2204/2205 4800 BKN015 OVC030 BECMG 2206/2207 9999 NSW SCT015 BKN030 BECMG 2211/2212 33006KT SCT030 BECMG 2300/2301 18008KT